Time;durP1;ratioP1;P1;durP2;ratioP2;P2;SDS_P1;SDS_P2;PMS_P1;PMS_P2;Temp;Humidity;BMP_temperature;BMP_pressure;BME280_temperature;BME280_humidity;BME280_pressure;Samples;Min_cycle;Max_cycle;Signal;HPM_P1;HPM_P2
2023/11/28 00:01:28;;;;;;;11.40;5.37;;;1.70;99.90;;;;;;4933478;29;20587;-62
2023/11/28 00:03:54;;;;;;;12.80;5.27;;;1.80;99.90;;;;;;4934188;29;20181;-61
2023/11/28 00:06:20;;;;;;;12.03;5.83;;;1.70;99.90;;;;;;4933949;29;20194;-61
2023/11/28 00:08:46;;;;;;;12.90;5.60;;;1.70;99.90;;;;;;4933923;29;20179;-61
2023/11/28 00:11:22;;;;;;;13.30;5.43;;;1.70;99.90;;;;;;4933296;29;20233;-60
2023/11/28 00:13:49;;;;;;;12.73;5.20;;;1.70;99.90;;;;;;4933753;29;20210;-60
2023/11/28 00:16:15;;;;;;;12.33;5.13;;;1.70;99.90;;;;;;4933984;29;20191;-60
2023/11/28 00:18:40;;;;;;;10.60;5.57;;;1.80;99.90;;;;;;4933846;29;20679;-60
2023/11/28 00:21:06;;;;;;;12.03;5.70;;;1.70;99.90;;;;;;4932974;29;20211;-61
2023/11/28 00:23:32;;;;;;;10.43;5.20;;;1.70;99.90;;;;;;4933748;28;20179;-61
2023/11/28 00:25:57;;;;;;;11.20;5.87;;;1.70;99.90;;;;;;4933638;29;20187;-62
2023/11/28 00:28:25;;;;;;;13.87;6.30;;;1.70;99.90;;;;;;4933583;29;20191;-62
2023/11/28 00:30:54;;;;;;;14.20;5.80;;;1.70;99.90;;;;;;4932907;29;20222;-61
2023/11/28 00:33:20;;;;;;;12.40;5.80;;;1.70;99.90;;;;;;4933157;29;20179;-62
2023/11/28 00:35:46;;;;;;;14.37;6.37;;;1.70;99.90;;;;;;4933354;29;20191;-62
2023/11/28 00:38:12;;;;;;;12.67;6.20;;;1.70;99.90;;;;;;4933530;29;20183;-61
2023/11/28 00:40:39;;;;;;;13.50;6.47;;;1.70;99.90;;;;;;4932499;29;20312;-59
2023/11/28 00:43:05;;;;;;;14.37;6.60;;;1.70;99.90;;;;;;4947973;29;20179;-60
2023/11/28 00:45:31;;;;;;;16.20;6.70;;;1.70;99.90;;;;;;4933361;29;20680;-60
2023/11/28 00:47:57;;;;;;;10.67;5.50;;;1.70;99.90;;;;;;4933459;29;20793;-62
2023/11/28 00:50:22;;;;;;;9.17;4.83;;;1.70;99.90;;;;;;4932644;29;20628;-61
2023/11/28 00:52:48;;;;;;;7.93;3.77;;;1.70;99.90;;;;;;4932766;29;20601;-62
2023/11/28 00:55:17;;;;;;;9.57;4.33;;;1.70;99.90;;;;;;4948108;29;20182;-62
2023/11/28 00:57:46;;;;;;;6.63;3.63;;;1.60;99.90;;;;;;4932966;29;20680;-61
2023/11/28 01:00:13;;;;;;;7.23;3.70;;;1.60;99.90;;;;;;4932536;29;20206;-61
2023/11/28 01:02:39;;;;;;;6.73;3.80;;;1.60;99.90;;;;;;4933122;29;20194;-61
2023/11/28 01:05:05;;;;;;;5.07;3.00;;;1.60;99.90;;;;;;4933148;29;20661;-61
2023/11/28 01:07:31;;;;;;;7.23;3.27;;;1.60;99.90;;;;;;4932973;29;20202;-61
2023/11/28 01:09:57;;;;;;;5.67;3.10;;;1.60;99.90;;;;;;4932360;29;20183;-59
2023/11/28 01:12:23;;;;;;;4.47;3.10;;;1.60;99.90;;;;;;4932161;29;20194;-62
2023/11/28 01:14:49;;;;;;;5.70;2.87;;;1.60;99.90;;;;;;4932932;29;20661;-62
2023/11/28 01:17:14;;;;;;;4.57;2.67;;;1.70;99.90;;;;;;4933094;29;20186;-61
2023/11/28 01:19:40;;;;;;;3.83;2.40;;;1.70;99.90;;;;;;4932361;29;20198;-60
2023/11/28 01:22:11;;;;;;;4.30;2.37;;;1.70;99.90;;;;;;4932923;29;20211;-60
2023/11/28 01:24:36;;;;;;;4.63;2.43;;;1.60;99.90;;;;;;4932937;29;20219;-60
2023/11/28 01:27:02;;;;;;;3.77;2.37;;;1.70;99.90;;;;;;4933051;29;20270;-60
2023/11/28 01:29:27;;;;;;;3.23;2.00;;;1.70;99.90;;;;;;4932158;29;20195;-62
2023/11/28 01:31:53;;;;;;;3.47;2.33;;;1.70;99.90;;;;;;4932747;29;20688;-61
2023/11/28 01:34:18;;;;;;;3.37;2.17;;;1.70;99.90;;;;;;4932962;29;20617;-61
2023/11/28 01:36:44;;;;;;;3.43;2.13;;;1.70;99.90;;;;;;4932785;29;20748;-60
2023/11/28 01:39:10;;;;;;;4.07;2.37;;;1.60;99.90;;;;;;4932359;29;20187;-62
2023/11/28 01:41:36;;;;;;;4.63;2.10;;;1.60;99.90;;;;;;4947240;28;20284;-60
2023/11/28 01:44:03;;;;;;;3.93;2.60;;;1.60;99.90;;;;;;4932850;29;20264;-60
2023/11/28 01:46:30;;;;;;;4.10;2.20;;;1.60;99.90;;;;;;4932789;29;20226;-60
2023/11/28 01:48:56;;;;;;;3.63;2.00;;;1.70;99.90;;;;;;4932874;29;20179;-59
2023/11/28 01:51:22;;;;;;;3.47;1.90;;;1.70;99.90;;;;;;4932033;29;20259;-61
2023/11/28 01:53:49;;;;;;;3.87;2.30;;;1.70;99.90;;;;;;4932606;29;20187;-60
2023/11/28 01:56:15;;;;;;;2.77;1.80;;;1.70;99.90;;;;;;4932851;29;20676;-60
2023/11/28 01:58:41;;;;;;;3.73;2.13;;;1.70;99.90;;;;;;4932529;29;20183;-60
2023/11/28 02:01:08;;;;;;;3.07;2.03;;;1.70;99.90;;;;;;4931896;29;20646;-62
2023/11/28 02:03:34;;;;;;;3.30;1.87;;;1.70;99.90;;;;;;4932552;29;20616;-61
2023/11/28 02:06:01;;;;;;;4.87;2.23;;;1.70;99.90;;;;;;4950510;28;20191;-60
2023/11/28 02:08:27;;;;;;;2.77;1.90;;;1.70;99.90;;;;;;4936152;29;20190;-60
2023/11/28 02:10:52;;;;;;;4.40;2.53;;;1.70;99.90;;;;;;4935709;29;20581;-60
2023/11/28 02:13:18;;;;;;;3.33;1.97;;;1.70;99.90;;;;;;4935950;29;20195;-62
2023/11/28 02:15:45;;;;;;;5.27;2.37;;;1.70;99.90;;;;;;4935937;29;20274;-60
2023/11/28 02:18:12;;;;;;;4.10;2.63;;;1.70;99.90;;;;;;4935814;29;20218;-59
2023/11/28 02:20:39;;;;;;;6.40;2.40;;;1.70;99.90;;;;;;4935074;29;20262;-61
2023/11/28 02:23:06;;;;;;;4.47;2.40;;;1.70;99.90;;;;;;4935888;29;20179;-61
2023/11/28 02:25:42;;;;;;;5.60;2.43;;;1.70;99.90;;;;;;4935807;29;20191;-58
2023/11/28 02:28:08;;;;;;;5.40;2.23;;;1.70;99.90;;;;;;4935728;29;20186;-59
2023/11/28 02:30:33;;;;;;;3.83;2.20;;;1.60;99.90;;;;;;4934839;29;20235;-60
2023/11/28 02:32:59;;;;;;;6.43;2.10;;;1.60;99.90;;;;;;4935703;29;20195;-60
2023/11/28 02:35:24;;;;;;;7.43;2.63;;;1.60;99.90;;;;;;4936099;29;20187;-60
2023/11/28 02:37:50;;;;;;;4.43;2.70;;;1.60;99.90;;;;;;4935510;29;20188;-62
2023/11/28 02:40:16;;;;;;;4.87;2.73;;;1.60;99.90;;;;;;4935024;29;20207;-61
2023/11/28 02:42:41;;;;;;;4.80;2.60;;;1.60;99.90;;;;;;4935374;29;20187;-61
2023/11/28 02:45:07;;;;;;;4.80;2.73;;;1.60;99.90;;;;;;4936188;29;20187;-62
2023/11/28 02:47:33;;;;;;;4.60;2.63;;;1.60;99.90;;;;;;4935305;29;20544;-60
2023/11/28 02:49:59;;;;;;;11.00;2.90;;;1.60;99.90;;;;;;4934714;29;20187;-62
2023/11/28 02:52:25;;;;;;;6.50;2.73;;;1.60;99.90;;;;;;4935498;29;20183;-62
2023/11/28 02:54:51;;;;;;;6.83;3.10;;;1.60;99.90;;;;;;4934946;29;20179;-61
2023/11/28 02:57:17;;;;;;;4.67;3.00;;;1.60;99.90;;;;;;4935415;29;20273;-62
2023/11/28 02:59:42;;;;;;;5.63;3.00;;;1.60;99.90;;;;;;4934480;29;20714;-61
2023/11/28 03:02:08;;;;;;;4.90;2.80;;;1.60;99.90;;;;;;4935040;29;20298;-60
2023/11/28 03:04:33;;;;;;;4.17;2.60;;;1.60;99.90;;;;;;4935044;29;20199;-61
2023/11/28 03:06:59;;;;;;;5.03;3.03;;;1.60;99.90;;;;;;4935201;29;20183;-61
2023/11/28 03:09:24;;;;;;;5.00;2.63;;;1.60;99.90;;;;;;4934551;29;20191;-62
2023/11/28 03:11:50;;;;;;;5.40;3.03;;;1.70;99.90;;;;;;4934837;29;20285;-61
2023/11/28 03:14:15;;;;;;;4.37;2.47;;;1.60;99.90;;;;;;4934962;29;20198;-61
2023/11/28 03:16:41;;;;;;;4.17;2.37;;;1.60;99.90;;;;;;4934280;29;20190;-61
2023/11/28 03:19:07;;;;;;;4.47;1.93;;;1.60;99.90;;;;;;4933648;29;20187;-61
2023/11/28 03:21:32;;;;;;;4.97;2.30;;;1.60;99.90;;;;;;4934020;29;20281;-60
2023/11/28 03:23:58;;;;;;;3.37;2.23;;;1.60;99.90;;;;;;4934881;29;20215;-61
2023/11/28 03:26:23;;;;;;;3.40;1.90;;;1.60;99.90;;;;;;4935091;29;20183;-60
2023/11/28 03:28:49;;;;;;;3.33;2.03;;;1.60;99.90;;;;;;4934601;29;20175;-61
2023/11/28 03:31:14;;;;;;;4.33;2.07;;;1.60;99.90;;;;;;4934001;29;20781;-59
2023/11/28 03:33:40;;;;;;;3.27;2.10;;;1.70;99.90;;;;;;4934539;29;21011;-61
2023/11/28 03:36:06;;;;;;;3.50;2.00;;;1.60;99.90;;;;;;4934691;29;20266;-61
2023/11/28 03:38:32;;;;;;;2.80;1.77;;;1.60;99.90;;;;;;4934573;29;20273;-60
2023/11/28 03:40:57;;;;;;;3.53;2.00;;;1.60;99.90;;;;;;4933970;29;20210;-62
2023/11/28 03:43:23;;;;;;;7.33;2.00;;;1.60;99.90;;;;;;4934418;29;20554;-60
2023/11/28 03:45:49;;;;;;;3.17;1.97;;;1.60;99.90;;;;;;4934303;29;20212;-60
2023/11/28 03:48:14;;;;;;;2.87;1.80;;;1.60;99.90;;;;;;4934387;29;20266;-62
2023/11/28 03:50:40;;;;;;;3.87;2.07;;;1.60;99.90;;;;;;4933691;29;20711;-59
2023/11/28 03:53:05;;;;;;;3.47;2.00;;;1.60;99.90;;;;;;4934422;29;20227;-62
2023/11/28 03:55:31;;;;;;;3.67;1.80;;;1.60;99.90;;;;;;4934228;29;20190;-60
2023/11/28 03:57:57;;;;;;;3.97;1.83;;;1.60;99.90;;;;;;4934274;29;20724;-62
2023/11/28 04:00:23;;;;;;;2.80;1.70;;;1.60;99.90;;;;;;4933464;29;20743;-62
2023/11/28 04:02:48;;;;;;;2.63;1.80;;;1.60;99.90;;;;;;4933927;29;20186;-63
2023/11/28 04:05:14;;;;;;;5.60;1.83;;;1.60;99.90;;;;;;4934136;29;20195;-59
2023/11/28 04:07:40;;;;;;;4.33;2.30;;;1.50;99.90;;;;;;4933982;29;20206;-62
2023/11/28 04:10:06;;;;;;;4.17;2.40;;;1.60;99.90;;;;;;4933372;29;20230;-62
2023/11/28 04:12:32;;;;;;;3.33;2.13;;;1.60;99.90;;;;;;4933942;29;20238;-62
2023/11/28 04:14:57;;;;;;;3.53;2.00;;;1.60;99.90;;;;;;4933725;29;20179;-61
2023/11/28 04:17:23;;;;;;;3.07;1.43;;;1.60;99.90;;;;;;4934448;29;20238;-64
2023/11/28 04:19:49;;;;;;;2.60;1.70;;;1.60;99.90;;;;;;4933199;29;20680;-63
2023/11/28 04:22:14;;;;;;;3.63;1.60;;;1.60;99.90;;;;;;4933705;29;20234;-63
2023/11/28 04:24:40;;;;;;;5.03;1.90;;;1.60;99.90;;;;;;4933701;29;20190;-62
2023/11/28 04:27:05;;;;;;;5.13;1.47;;;1.60;99.90;;;;;;4933697;29;20669;-63
2023/11/28 04:29:31;;;;;;;7.13;1.87;;;1.60;99.90;;;;;;4932247;29;20716;-64
2023/11/28 04:31:57;;;;;;;3.47;1.90;;;1.60;99.90;;;;;;4933404;29;20597;-64
2023/11/28 04:34:22;;;;;;;4.03;1.40;;;1.60;99.90;;;;;;4933903;29;20187;-63
2023/11/28 04:36:48;;;;;;;3.00;1.47;;;1.60;99.90;;;;;;4933474;29;20191;-63
2023/11/28 04:39:14;;;;;;;1.70;1.30;;;1.60;99.90;;;;;;4932873;29;20195;-63
2023/11/28 04:41:40;;;;;;;1.53;1.00;;;1.60;99.90;;;;;;4933203;29;20211;-64
2023/11/28 04:44:06;;;;;;;1.70;1.10;;;1.60;99.90;;;;;;4933294;29;20175;-63
2023/11/28 04:46:31;;;;;;;3.63;1.13;;;1.50;99.90;;;;;;4933372;29;20246;-63
2023/11/28 04:48:57;;;;;;;3.00;1.30;;;1.50;99.90;;;;;;4933341;29;20241;-63
2023/11/28 04:51:23;;;;;;;2.70;1.10;;;1.50;99.90;;;;;;4932630;29;20211;-63
2023/11/28 04:53:49;;;;;;;3.40;0.90;;;1.60;99.90;;;;;;4933251;29;20183;-63
2023/11/28 04:56:14;;;;;;;2.20;0.87;;;1.50;99.90;;;;;;4933496;29;20909;-64
2023/11/28 04:58:43;;;;;;;1.37;0.80;;;1.50;99.90;;;;;;4933482;29;20183;-64
2023/11/28 05:01:09;;;;;;;0.90;0.73;;;1.50;99.90;;;;;;4932291;29;20298;-63
2023/11/28 05:03:34;;;;;;;1.53;0.87;;;1.50;99.90;;;;;;4933384;29;20218;-64
2023/11/28 05:06:00;;;;;;;2.10;0.80;;;1.50;99.90;;;;;;4933420;29;20172;-63
2023/11/28 05:08:25;;;;;;;6.87;1.10;;;1.50;99.90;;;;;;4933332;29;20218;-63
2023/11/28 05:10:51;;;;;;;1.50;0.80;;;1.40;99.90;;;;;;4947513;28;20648;-63
2023/11/28 05:13:17;;;;;;;1.50;1.10;;;1.40;99.90;;;;;;4933121;29;20195;-61
2023/11/28 05:15:42;;;;;;;2.60;0.90;;;1.40;99.90;;;;;;4933457;29;20506;-60
2023/11/28 05:18:08;;;;;;;2.83;1.40;;;1.40;99.90;;;;;;4933028;29;20215;-62
2023/11/28 05:20:33;;;;;;;2.17;1.40;;;1.50;99.90;;;;;;4932275;29;20219;-62
2023/11/28 05:22:59;;;;;;;3.77;1.30;;;1.50;99.90;;;;;;4933119;29;20194;-62
2023/11/28 05:25:25;;;;;;;1.40;1.10;;;1.40;99.90;;;;;;4933195;29;20195;-62
2023/11/28 05:27:51;;;;;;;2.87;1.13;;;1.40;99.90;;;;;;4937661;29;20191;-62
2023/11/28 05:30:17;;;;;;;1.60;1.20;;;1.30;99.90;;;;;;4932237;29;20203;-62
2023/11/28 05:32:42;;;;;;;2.60;1.40;;;1.30;99.90;;;;;;4932624;29;20262;-63
2023/11/28 05:35:09;;;;;;;2.37;1.30;;;1.30;99.90;;;;;;4933105;29;20202;-61
2023/11/28 05:37:34;;;;;;;2.63;1.30;;;1.30;99.90;;;;;;4932846;29;20179;-60
2023/11/28 05:40:02;;;;;;;2.37;1.40;;;1.40;99.90;;;;;;4938908;28;20201;-62
2023/11/28 05:42:28;;;;;;;2.47;1.60;;;1.50;99.90;;;;;;4936668;29;20226;-62
2023/11/28 05:44:53;;;;;;;1.77;1.50;;;1.50;99.90;;;;;;4936481;29;20187;-63
2023/11/28 05:47:19;;;;;;;4.17;1.53;;;1.50;99.90;;;;;;4936622;29;20197;-61
2023/11/28 05:49:44;;;;;;;1.80;1.07;;;1.40;99.90;;;;;;4936007;29;20541;-63
2023/11/28 05:52:10;;;;;;;2.10;1.23;;;1.40;99.90;;;;;;4936366;29;20278;-60
2023/11/28 05:54:35;;;;;;;1.67;1.20;;;1.40;99.90;;;;;;4936319;29;20233;-62
2023/11/28 05:57:02;;;;;;;1.20;1.07;;;1.40;99.90;;;;;;4936293;29;20231;-62
2023/11/28 05:59:27;;;;;;;2.23;1.43;;;1.40;99.90;;;;;;4935710;29;20274;-60
2023/11/28 06:02:01;;;;;;;4.20;1.27;;;1.40;99.90;;;;;;4936042;29;20223;-62
2023/11/28 06:04:27;;;;;;;1.53;1.40;;;1.40;99.90;;;;;;4936441;28;20289;-62
2023/11/28 06:06:53;;;;;;;1.57;1.33;;;1.40;99.90;;;;;;4936035;29;20194;-62
2023/11/28 06:09:18;;;;;;;1.80;1.40;;;1.40;99.90;;;;;;4935868;29;20274;-64
2023/11/28 06:11:44;;;;;;;2.23;1.57;;;1.40;99.90;;;;;;4935761;29;20219;-63
2023/11/28 06:14:09;;;;;;;4.77;2.37;;;1.30;99.90;;;;;;4936014;29;20198;-61
2023/11/28 06:16:35;;;;;;;17.73;7.87;;;1.30;99.90;;;;;;4935741;29;20258;-61
2023/11/28 06:19:03;;;;;;;4.13;2.67;;;1.20;99.90;;;;;;4935999;29;20187;-63
2023/11/28 06:21:28;;;;;;;1.83;1.40;;;1.30;99.90;;;;;;4935407;29;20222;-63
2023/11/28 06:23:54;;;;;;;2.00;1.67;;;1.30;99.90;;;;;;4928173;29;20645;-63
2023/11/28 06:26:20;;;;;;;1.90;1.60;;;1.30;99.90;;;;;;4935833;29;20709;-60
2023/11/28 06:28:45;;;;;;;1.80;1.50;;;1.30;99.90;;;;;;4935871;29;20218;-60
2023/11/28 06:31:11;;;;;;;2.80;1.90;;;1.30;99.90;;;;;;4934930;29;20227;-61
2023/11/28 06:33:37;;;;;;;15.93;7.47;;;1.30;99.90;;;;;;4935903;29;20191;-60
2023/11/28 06:36:04;;;;;;;34.30;14.33;;;1.30;99.90;;;;;;4935690;29;20191;-62
2023/11/28 06:38:29;;;;;;;15.63;6.87;;;1.30;99.90;;;;;;4935728;29;20195;-64
2023/11/28 06:40:55;;;;;;;7.70;5.10;;;1.30;99.90;;;;;;4934709;29;20245;-63
2023/11/28 06:43:20;;;;;;;4.90;2.90;;;1.30;99.90;;;;;;4935582;29;20199;-63
2023/11/28 06:45:46;;;;;;;3.40;2.60;;;1.20;99.90;;;;;;4935475;29;20202;-61
2023/11/28 06:48:11;;;;;;;5.27;2.60;;;1.20;99.90;;;;;;4935539;29;20199;-61
2023/11/28 06:50:37;;;;;;;7.60;2.53;;;1.20;99.90;;;;;;4934018;29;20219;-62
2023/11/28 06:53:02;;;;;;;3.70;2.30;;;1.20;99.90;;;;;;4935052;29;20201;-63
2023/11/28 06:55:28;;;;;;;3.53;2.27;;;1.20;99.90;;;;;;4935389;29;20202;-62
2023/11/28 06:57:54;;;;;;;3.07;2.37;;;1.20;99.90;;;;;;4935435;29;20187;-62
2023/11/28 07:00:19;;;;;;;3.77;2.50;;;1.20;99.90;;;;;;4934419;29;20685;-62
2023/11/28 07:02:45;;;;;;;3.30;2.23;;;1.20;99.90;;;;;;4935223;29;20701;-61
2023/11/28 07:05:10;;;;;;;5.10;2.33;;;1.20;99.90;;;;;;4935338;29;20275;-60
2023/11/28 07:07:36;;;;;;;2.40;1.73;;;1.20;99.90;;;;;;4935177;29;20218;-60
2023/11/28 07:10:03;;;;;;;8.53;3.23;;;1.20;99.90;;;;;;4934542;29;20211;-62
2023/11/28 07:12:29;;;;;;;5.93;3.30;;;1.20;99.90;;;;;;4934353;29;20570;-64
2023/11/28 07:14:55;;;;;;;12.83;5.93;;;1.20;99.90;;;;;;4927064;29;20283;-63
2023/11/28 07:17:20;;;;;;;19.43;6.97;;;1.10;99.90;;;;;;4935086;29;20553;-61
2023/11/28 07:19:46;;;;;;;4.93;3.53;;;1.10;99.90;;;;;;4934545;29;20557;-62
2023/11/28 07:22:11;;;;;;;5.73;3.30;;;1.10;99.90;;;;;;4934907;29;20211;-63
2023/11/28 07:24:37;;;;;;;6.17;2.60;;;1.10;99.90;;;;;;4934754;29;20186;-61
2023/11/28 07:27:03;;;;;;;4.57;2.90;;;1.10;99.90;;;;;;4934932;29;20235;-61
2023/11/28 07:29:29;;;;;;;3.97;2.50;;;1.00;99.90;;;;;;4934135;29;20239;-61
2023/11/28 07:31:55;;;;;;;4.33;2.57;;;1.00;99.90;;;;;;4934577;29;20297;-63
2023/11/28 07:34:20;;;;;;;5.43;2.63;;;1.00;99.90;;;;;;4934782;29;20198;-62
2023/11/28 07:36:47;;;;;;;6.80;3.00;;;1.00;99.90;;;;;;4934538;29;20220;-61
2023/11/28 07:39:14;;;;;;;3.93;2.43;;;1.00;99.90;;;;;;4934077;29;20237;-62
2023/11/28 07:41:40;;;;;;;4.17;2.83;;;1.00;99.90;;;;;;4934094;29;20226;-63
2023/11/28 07:44:05;;;;;;;3.50;2.47;;;1.10;99.90;;;;;;4934452;29;20183;-60
2023/11/28 07:46:31;;;;;;;4.60;2.90;;;1.10;99.90;;;;;;4934477;29;20495;-63
2023/11/28 07:48:58;;;;;;;5.67;2.80;;;1.10;99.90;;;;;;4934415;29;20577;-61
2023/11/28 07:51:24;;;;;;;4.13;3.30;;;1.10;99.90;;;;;;4933737;29;20294;-61
2023/11/28 07:53:49;;;;;;;3.53;2.60;;;1.00;99.90;;;;;;4934097;29;20215;-62
2023/11/28 07:56:17;;;;;;;4.27;3.00;;;1.00;99.90;;;;;;4934179;29;20195;-61
2023/11/28 07:58:43;;;;;;;4.30;2.90;;;1.10;99.90;;;;;;4932999;29;20270;-63
2023/11/28 08:01:09;;;;;;;4.17;3.00;;;1.10;99.90;;;;;;4933334;29;20314;-61
2023/11/28 08:03:34;;;;;;;4.13;2.77;;;1.00;99.90;;;;;;4934015;29;20198;-62
2023/11/28 08:06:03;;;;;;;4.67;3.37;;;1.10;99.90;;;;;;4934284;29;20180;-63
2023/11/28 08:08:31;;;;;;;4.33;2.73;;;1.00;99.90;;;;;;4934088;29;20230;-63
2023/11/28 08:10:57;;;;;;;5.30;3.60;;;1.10;99.90;;;;;;4925659;29;20234;-61
2023/11/28 08:13:24;;;;;;;3.33;2.40;;;1.10;99.90;;;;;;4934119;29;20255;-63
2023/11/28 08:15:49;;;;;;;3.50;2.67;;;1.10;99.90;;;;;;4934037;29;20187;-63
2023/11/28 08:18:15;;;;;;;11.40;4.70;;;1.10;99.90;;;;;;4934130;29;20217;-63
2023/11/28 08:20:41;;;;;;;5.80;3.57;;;1.20;99.90;;;;;;4932929;29;20211;-63
2023/11/28 08:23:06;;;;;;;6.57;3.73;;;1.20;99.90;;;;;;4933704;29;20225;-63
2023/11/28 08:25:32;;;;;;;5.77;3.60;;;1.20;99.90;;;;;;4933701;29;20679;-63
2023/11/28 08:27:58;;;;;;;4.73;3.60;;;1.20;99.90;;;;;;4933722;29;20219;-64
2023/11/28 08:30:23;;;;;;;6.23;3.90;;;1.20;99.90;;;;;;4933007;29;20210;-64
2023/11/28 08:32:49;;;;;;;5.30;3.27;;;1.20;99.90;;;;;;4933562;29;20195;-63
2023/11/28 08:35:15;;;;;;;9.07;4.40;;;1.10;99.90;;;;;;4933687;29;20266;-62
2023/11/28 08:37:41;;;;;;;44.90;15.63;;;1.10;99.90;;;;;;4933431;29;20180;-63
2023/11/28 08:40:07;;;;;;;35.87;12.20;;;1.10;99.90;;;;;;4932873;29;20242;-64
2023/11/28 08:42:33;;;;;;;11.40;5.80;;;1.10;99.90;;;;;;4933530;29;20215;-64
2023/11/28 08:44:59;;;;;;;7.67;4.73;;;1.20;99.90;;;;;;4933446;29;20654;-64
2023/11/28 08:47:25;;;;;;;9.47;4.33;;;1.20;99.90;;;;;;4933586;29;20743;-63
2023/11/28 08:49:50;;;;;;;7.43;4.70;;;1.20;99.90;;;;;;4932538;29;20246;-62
2023/11/28 08:52:17;;;;;;;7.33;4.70;;;1.20;99.90;;;;;;4933261;29;20684;-63
2023/11/28 08:54:43;;;;;;;8.37;5.10;;;1.20;99.90;;;;;;4933418;29;20269;-63
2023/11/28 08:57:10;;;;;;;8.17;5.23;;;1.20;99.90;;;;;;4933353;29;20191;-63
2023/11/28 08:59:36;;;;;;;7.17;4.50;;;1.20;99.90;;;;;;4932723;29;20187;-63
2023/11/28 09:02:02;;;;;;;8.63;5.33;;;1.20;99.90;;;;;;4933136;29;20262;-63
2023/11/28 09:04:28;;;;;;;9.27;5.00;;;1.20;99.90;;;;;;4933233;29;20525;-63
2023/11/28 09:06:53;;;;;;;8.30;5.10;;;1.20;99.90;;;;;;4932918;29;20179;-61
2023/11/28 09:09:19;;;;;;;7.37;4.83;;;1.20;99.90;;;;;;4932566;29;20183;-61
2023/11/28 09:11:45;;;;;;;8.03;5.03;;;1.20;99.90;;;;;;4933004;29;20347;-62
2023/11/28 09:14:10;;;;;;;9.03;5.90;;;1.20;99.90;;;;;;4932598;29;20183;-62
2023/11/28 09:16:36;;;;;;;10.60;5.87;;;1.20;99.90;;;;;;4933078;29;20214;-62
2023/11/28 09:19:01;;;;;;;8.93;5.77;;;1.30;99.90;;;;;;4933214;29;20192;-62
2023/11/28 09:21:27;;;;;;;10.20;6.43;;;1.20;99.90;;;;;;4931637;29;20214;-63
2023/11/28 09:23:52;;;;;;;12.33;6.40;;;1.30;99.90;;;;;;4932807;29;20676;-64
2023/11/28 09:26:18;;;;;;;11.53;5.57;;;1.30;99.90;;;;;;4933100;29;20195;-64
2023/11/28 09:28:43;;;;;;;12.03;6.43;;;1.30;99.90;;;;;;4931426;29;20656;-61
2023/11/28 09:31:09;;;;;;;12.23;5.87;;;1.30;99.90;;;;;;4931294;29;20225;-63
2023/11/28 09:33:35;;;;;;;10.10;5.37;;;1.20;99.90;;;;;;4932265;29;20241;-63
2023/11/28 09:36:00;;;;;;;9.33;5.47;;;1.20;99.90;;;;;;4931951;29;20551;-59
2023/11/28 09:38:27;;;;;;;10.13;5.40;;;1.30;99.90;;;;;;4932087;29;20191;-60
2023/11/28 09:40:53;;;;;;;10.83;5.70;;;1.30;99.90;;;;;;4931364;29;20708;-64
2023/11/28 09:43:26;;;;;;;11.20;5.30;;;1.30;99.90;;;;;;4931902;29;20214;-63
2023/11/28 09:45:56;;;;;;;12.23;6.27;;;1.20;99.90;;;;;;4932023;29;20584;-63
2023/11/28 09:48:25;;;;;;;10.20;5.80;;;1.20;99.90;;;;;;4932517;29;20180;-62
2023/11/28 09:50:52;;;;;;;9.37;5.77;;;1.20;99.90;;;;;;4931372;29;20255;-64
2023/11/28 09:53:23;;;;;;;12.73;5.90;;;1.20;99.90;;;;;;4932381;29;20211;-63
2023/11/28 09:55:51;;;;;;;11.83;6.00;;;1.10;99.90;;;;;;4932587;29;20231;-63
2023/11/28 09:58:20;;;;;;;8.57;5.33;;;1.10;99.90;;;;;;4931796;29;20191;-63
2023/11/28 10:00:46;;;;;;;11.23;5.30;;;1.10;99.90;;;;;;4932055;29;20602;-61
2023/11/28 10:03:11;;;;;;;10.27;6.07;;;1.10;99.90;;;;;;4932891;29;20274;-67
2023/11/28 10:05:37;;;;;;;8.00;5.53;;;1.10;99.90;;;;;;4932539;29;20179;-60
2023/11/28 10:08:07;;;;;;;11.03;5.43;;;1.10;99.90;;;;;;4934267;29;20195;-62
2023/11/28 10:10:39;;;;;;;7.97;4.73;;;1.10;99.90;;;;;;4937867;28;20210;-60
2023/11/28 10:13:05;;;;;;;10.13;4.77;;;1.10;99.90;;;;;;4937789;29;20180;-61
2023/11/28 10:15:30;;;;;;;7.23;4.47;;;1.00;99.90;;;;;;4931751;29;20238;-63
2023/11/28 10:17:57;;;;;;;8.77;4.90;;;0.90;99.90;;;;;;4932087;29;20869;-64
2023/11/28 10:20:27;;;;;;;11.97;4.90;;;0.90;99.90;;;;;;4931556;29;20484;-63
2023/11/28 10:22:53;;;;;;;10.07;4.70;;;1.00;99.90;;;;;;4931932;29;20202;-63
2023/11/28 10:25:21;;;;;;;8.80;4.70;;;1.00;99.90;;;;;;4932060;29;20187;-63
2023/11/28 10:27:47;;;;;;;9.10;4.03;;;1.00;99.90;;;;;;4934467;29;20190;-63
2023/11/28 10:30:16;;;;;;;7.30;4.27;;;1.00;99.90;;;;;;4934174;29;20242;-63
2023/11/28 10:32:44;;;;;;;9.47;4.50;;;0.90;99.90;;;;;;4934854;29;20190;-63
2023/11/28 10:35:10;;;;;;;26.33;10.13;;;1.00;99.90;;;;;;4949852;29;20192;-64
2023/11/28 10:37:40;;;;;;;8.20;4.53;;;1.10;99.90;;;;;;4934931;29;20280;-63
2023/11/28 10:40:07;;;;;;;9.40;4.47;;;1.10;99.90;;;;;;4934527;29;20688;-63
2023/11/28 10:42:33;;;;;;;8.13;4.40;;;1.10;99.90;;;;;;4934914;29;20226;-62
2023/11/28 10:45:00;;;;;;;7.33;4.43;;;1.20;99.90;;;;;;4934904;29;20189;-63
2023/11/28 10:47:31;;;;;;;8.50;4.20;;;1.30;99.90;;;;;;4934932;29;20274;-62
2023/11/28 10:49:56;;;;;;;7.80;4.47;;;1.30;99.90;;;;;;4934089;29;20184;-60
2023/11/28 10:52:28;;;;;;;6.70;4.30;;;1.30;99.90;;;;;;4935096;29;20545;-60
2023/11/28 10:54:59;;;;;;;5.67;3.70;;;1.20;99.90;;;;;;4935285;29;20211;-59
2023/11/28 10:57:28;;;;;;;6.23;3.70;;;1.30;99.90;;;;;;4934927;29;20191;-62
2023/11/28 11:00:09;;;;;;;4.53;2.97;;;1.20;99.90;;;;;;4933904;29;20197;-59
2023/11/28 11:02:35;;;;;;;7.33;3.47;;;1.20;99.90;;;;;;4934459;29;20214;-60
2023/11/28 11:05:06;;;;;;;7.33;3.70;;;1.30;99.90;;;;;;4934706;29;20287;-63
2023/11/28 11:07:33;;;;;;;5.43;3.40;;;1.30;99.90;;;;;;4934614;29;20206;-64
2023/11/28 11:10:01;;;;;;;5.77;3.90;;;1.30;99.90;;;;;;4926258;29;20657;-61
2023/11/28 11:12:27;;;;;;;6.07;4.00;;;1.30;99.90;;;;;;4934426;29;20189;-61
2023/11/28 11:15:29;;;;;;;12.07;3.70;;;1.40;99.90;;;;;;4934445;29;20202;-62
2023/11/28 11:18:23;;;;;;;6.60;4.10;;;1.60;99.90;;;;;;4934387;29;20238;-61
2023/11/28 11:20:55;;;;;;;5.47;3.43;;;1.70;99.90;;;;;;4924895;29;20238;-62
2023/11/28 11:23:24;;;;;;;5.97;3.80;;;1.60;99.90;;;;;;4934526;29;20199;-61
2023/11/28 11:25:52;;;;;;;4.80;3.40;;;1.60;99.90;;;;;;4934098;29;20648;-61
2023/11/28 11:28:18;;;;;;;6.50;3.23;;;1.60;99.90;;;;;;4934072;29;20191;-64
2023/11/28 11:30:45;;;;;;;5.60;3.67;;;1.50;99.90;;;;;;4932878;29;20261;-63
2023/11/28 11:33:12;;;;;;;5.47;3.73;;;1.50;99.90;;;;;;4934103;29;20175;-62
2023/11/28 11:36:05;;;;;;;4.67;2.80;;;1.40;99.90;;;;;;4933709;28;20576;-61
2023/11/28 11:38:30;;;;;;;5.80;3.97;;;1.40;99.90;;;;;;4933454;29;20191;-62
2023/11/28 11:40:57;;;;;;;6.03;3.80;;;1.40;99.90;;;;;;4932939;29;20238;-63
2023/11/28 11:43:26;;;;;;;4.47;3.07;;;1.40;99.90;;;;;;4933908;29;20183;-63
2023/11/28 11:45:51;;;;;;;5.87;2.83;;;1.30;99.90;;;;;;4933704;29;20194;-61
2023/11/28 11:48:30;;;;;;;3.60;2.70;;;1.10;99.90;;;;;;4933960;29;20561;-61
2023/11/28 11:50:56;;;;;;;4.17;2.50;;;1.10;99.90;;;;;;4932954;29;20290;-60
2023/11/28 11:53:23;;;;;;;5.60;3.70;;;1.20;99.90;;;;;;4933177;29;20497;-62
2023/11/28 11:55:49;;;;;;;27.23;13.93;;;1.30;99.90;;;;;;4933553;29;20607;-61
2023/11/28 11:58:15;;;;;;;6.57;4.30;;;1.60;99.90;;;;;;4933825;29;20191;-63
2023/11/28 12:00:41;;;;;;;8.33;4.30;;;1.90;99.90;;;;;;4932897;29;20553;-62
2023/11/28 12:03:07;;;;;;;19.07;11.17;;;2.20;99.90;;;;;;4933554;29;20215;-62
2023/11/28 12:05:34;;;;;;;4.83;3.30;;;2.20;99.90;;;;;;4933390;29;20194;-64
2023/11/28 12:08:00;;;;;;;4.40;3.13;;;2.10;99.90;;;;;;4933330;29;20193;-61
2023/11/28 12:10:26;;;;;;;3.13;2.43;;;2.10;99.90;;;;;;4932802;29;20752;-61
2023/11/28 12:12:51;;;;;;;3.37;2.60;;;2.00;99.90;;;;;;4933376;29;20194;-61
2023/11/28 12:15:18;;;;;;;4.27;2.50;;;1.90;99.90;;;;;;4933327;29;20664;-59
2023/11/28 12:17:43;;;;;;;4.17;2.80;;;1.80;99.90;;;;;;4933211;29;20194;-59
2023/11/28 12:20:10;;;;;;;7.70;3.53;;;1.60;99.90;;;;;;4932555;29;20203;-61
2023/11/28 12:22:35;;;;;;;7.63;3.60;;;1.50;99.90;;;;;;4932876;29;20379;-61
2023/11/28 12:25:02;;;;;;;5.40;2.87;;;1.40;99.90;;;;;;4933067;29;20184;-60
2023/11/28 12:27:28;;;;;;;3.60;2.67;;;1.40;99.90;;;;;;4933286;29;20183;-59
2023/11/28 12:29:54;;;;;;;5.70;3.40;;;1.40;99.90;;;;;;4932185;29;20823;-59
2023/11/28 12:32:20;;;;;;;5.67;3.27;;;1.20;99.90;;;;;;4933020;29;20214;-63
2023/11/28 12:34:45;;;;;;;5.97;3.20;;;1.20;99.90;;;;;;4932877;29;20235;-62
2023/11/28 12:37:11;;;;;;;3.33;2.53;;;1.10;99.90;;;;;;4932920;29;20282;-60
2023/11/28 12:39:41;;;;;;;3.87;3.00;;;1.10;99.90;;;;;;4932176;29;20191;-61
2023/11/28 12:42:07;;;;;;;6.00;3.63;;;1.00;99.90;;;;;;4932769;29;20293;-59
2023/11/28 12:44:35;;;;;;;4.63;2.77;;;0.90;99.90;;;;;;4947372;29;20182;-60
2023/11/28 12:47:00;;;;;;;4.57;2.60;;;0.80;99.90;;;;;;4925361;29;20187;-59
2023/11/28 12:49:27;;;;;;;5.47;3.03;;;0.80;99.90;;;;;;4931572;29;20187;-59
2023/11/28 12:51:57;;;;;;;5.63;2.73;;;0.70;99.90;;;;;;4932482;29;20195;-61